sensor_id;sensor_type;location;lat;lon;timestamp;P1;durP1;ratioP1;P2;durP2;ratioP2
51030;SDS011;37058;41.442;23.240;2022-08-19T00:01:49;4.75;;;3.47;;
51030;SDS011;37058;41.442;23.240;2022-08-19T00:04:19;6.05;;;3.47;;
51030;SDS011;37058;41.442;23.240;2022-08-19T00:06:51;5.45;;;3.88;;
51030;SDS011;37058;41.442;23.240;2022-08-19T00:09:18;5.68;;;4.22;;
51030;SDS011;37058;41.442;23.240;2022-08-19T00:11:46;6.00;;;4.07;;
51030;SDS011;37058;41.442;23.240;2022-08-19T00:14:13;11.43;;;4.38;;
51030;SDS011;37058;41.442;23.240;2022-08-19T00:16:42;5.93;;;3.30;;
51030;SDS011;37058;41.442;23.240;2022-08-19T00:19:10;5.60;;;3.45;;
51030;SDS011;37058;41.442;23.240;2022-08-19T00:21:37;5.28;;;3.80;;
51030;SDS011;37058;41.442;23.240;2022-08-19T00:24:05;7.18;;;3.55;;
51030;SDS011;37058;41.442;23.240;2022-08-19T00:26:36;4.88;;;3.75;;
51030;SDS011;37058;41.442;23.240;2022-08-19T00:29:03;4.43;;;3.55;;
51030;SDS011;37058;41.442;23.240;2022-08-19T00:33:58;4.57;;;3.55;;
51030;SDS011;37058;41.442;23.240;2022-08-19T00:36:24;5.05;;;3.78;;
51030;SDS011;37058;41.442;23.240;2022-08-19T00:38:50;4.80;;;3.35;;
51030;SDS011;37058;41.442;23.240;2022-08-19T00:41:18;4.63;;;3.60;;
51030;SDS011;37058;41.442;23.240;2022-08-19T00:46:28;4.75;;;3.25;;
51030;SDS011;37058;41.442;23.240;2022-08-19T00:48:55;5.95;;;3.90;;
51030;SDS011;37058;41.442;23.240;2022-08-19T00:51:23;4.75;;;3.65;;
51030;SDS011;37058;41.442;23.240;2022-08-19T00:53:54;5.57;;;4.07;;
51030;SDS011;37058;41.442;23.240;2022-08-19T00:56:23;4.97;;;3.50;;
51030;SDS011;37058;41.442;23.240;2022-08-19T00:58:52;4.63;;;3.90;;
51030;SDS011;37058;41.442;23.240;2022-08-19T01:03:47;4.22;;;3.25;;
51030;SDS011;37058;41.442;23.240;2022-08-19T01:06:13;4.65;;;3.58;;
51030;SDS011;37058;41.442;23.240;2022-08-19T01:08:39;7.00;;;3.55;;
51030;SDS011;37058;41.442;23.240;2022-08-19T01:11:05;4.82;;;3.50;;
51030;SDS011;37058;41.442;23.240;2022-08-19T01:13:33;5.10;;;3.35;;
51030;SDS011;37058;41.442;23.240;2022-08-19T01:16:07;4.15;;;3.35;;
51030;SDS011;37058;41.442;23.240;2022-08-19T01:18:37;4.78;;;3.53;;
51030;SDS011;37058;41.442;23.240;2022-08-19T01:21:16;4.63;;;3.35;;
51030;SDS011;37058;41.442;23.240;2022-08-19T01:23:54;4.38;;;3.22;;
51030;SDS011;37058;41.442;23.240;2022-08-19T01:26:21;4.75;;;3.60;;
51030;SDS011;37058;41.442;23.240;2022-08-19T01:28:50;5.35;;;3.75;;
51030;SDS011;37058;41.442;23.240;2022-08-19T01:31:22;4.30;;;3.13;;
51030;SDS011;37058;41.442;23.240;2022-08-19T01:33:51;6.60;;;5.28;;
51030;SDS011;37058;41.442;23.240;2022-08-19T01:36:30;5.70;;;4.10;;
51030;SDS011;37058;41.442;23.240;2022-08-19T01:39:02;5.03;;;3.88;;
51030;SDS011;37058;41.442;23.240;2022-08-19T01:41:33;7.03;;;4.03;;
51030;SDS011;37058;41.442;23.240;2022-08-19T01:43:59;5.28;;;3.63;;
51030;SDS011;37058;41.442;23.240;2022-08-19T01:46:28;4.93;;;3.60;;
51030;SDS011;37058;41.442;23.240;2022-08-19T01:48:55;5.22;;;3.70;;
51030;SDS011;37058;41.442;23.240;2022-08-19T01:51:21;5.43;;;3.38;;
51030;SDS011;37058;41.442;23.240;2022-08-19T01:53:48;4.95;;;3.90;;
51030;SDS011;37058;41.442;23.240;2022-08-19T01:56:15;4.90;;;3.60;;
51030;SDS011;37058;41.442;23.240;2022-08-19T01:58:54;5.72;;;3.92;;
51030;SDS011;37058;41.442;23.240;2022-08-19T02:01:26;4.40;;;3.40;;
51030;SDS011;37058;41.442;23.240;2022-08-19T02:03:56;4.80;;;3.63;;
51030;SDS011;37058;41.442;23.240;2022-08-19T02:06:25;3.65;;;3.17;;
51030;SDS011;37058;41.442;23.240;2022-08-19T02:08:51;5.63;;;4.07;;
51030;SDS011;37058;41.442;23.240;2022-08-19T02:11:27;5.72;;;3.53;;
51030;SDS011;37058;41.442;23.240;2022-08-19T02:13:59;4.90;;;3.75;;
51030;SDS011;37058;41.442;23.240;2022-08-19T02:16:28;7.25;;;4.00;;
51030;SDS011;37058;41.442;23.240;2022-08-19T02:18:55;5.47;;;3.70;;
51030;SDS011;37058;41.442;23.240;2022-08-19T02:21:22;5.78;;;3.90;;
51030;SDS011;37058;41.442;23.240;2022-08-19T02:23:49;5.20;;;3.70;;
51030;SDS011;37058;41.442;23.240;2022-08-19T02:26:15;5.00;;;4.30;;
51030;SDS011;37058;41.442;23.240;2022-08-19T02:28:42;5.90;;;4.57;;
51030;SDS011;37058;41.442;23.240;2022-08-19T02:31:09;5.05;;;3.50;;
51030;SDS011;37058;41.442;23.240;2022-08-19T02:33:42;5.82;;;4.10;;
51030;SDS011;37058;41.442;23.240;2022-08-19T02:36:10;4.57;;;3.15;;
51030;SDS011;37058;41.442;23.240;2022-08-19T02:38:38;4.38;;;3.38;;
51030;SDS011;37058;41.442;23.240;2022-08-19T02:41:06;6.10;;;3.58;;
51030;SDS011;37058;41.442;23.240;2022-08-19T02:43:41;7.63;;;3.83;;
51030;SDS011;37058;41.442;23.240;2022-08-19T02:46:20;6.93;;;3.90;;
51030;SDS011;37058;41.442;23.240;2022-08-19T02:48:52;4.53;;;3.10;;
51030;SDS011;37058;41.442;23.240;2022-08-19T02:53:49;5.75;;;3.78;;
51030;SDS011;37058;41.442;23.240;2022-08-19T02:56:16;5.95;;;3.45;;
51030;SDS011;37058;41.442;23.240;2022-08-19T02:58:42;6.10;;;3.88;;
51030;SDS011;37058;41.442;23.240;2022-08-19T03:01:09;4.95;;;3.53;;
51030;SDS011;37058;41.442;23.240;2022-08-19T03:03:37;4.95;;;3.65;;
51030;SDS011;37058;41.442;23.240;2022-08-19T03:06:04;6.20;;;3.92;;
51030;SDS011;37058;41.442;23.240;2022-08-19T03:08:35;4.85;;;3.40;;
51030;SDS011;37058;41.442;23.240;2022-08-19T03:11:05;5.43;;;3.80;;
51030;SDS011;37058;41.442;23.240;2022-08-19T03:13:37;7.72;;;4.15;;
51030;SDS011;37058;41.442;23.240;2022-08-19T03:16:04;5.07;;;4.13;;
51030;SDS011;37058;41.442;23.240;2022-08-19T03:18:30;4.30;;;3.28;;
51030;SDS011;37058;41.442;23.240;2022-08-19T03:20:56;5.25;;;3.97;;
51030;SDS011;37058;41.442;23.240;2022-08-19T03:23:23;5.15;;;3.90;;
51030;SDS011;37058;41.442;23.240;2022-08-19T03:25:49;5.30;;;4.05;;
51030;SDS011;37058;41.442;23.240;2022-08-19T03:28:18;4.88;;;4.00;;
51030;SDS011;37058;41.442;23.240;2022-08-19T03:30:54;8.43;;;4.38;;
51030;SDS011;37058;41.442;23.240;2022-08-19T03:38:38;7.95;;;4.75;;
51030;SDS011;37058;41.442;23.240;2022-08-19T03:41:17;7.83;;;4.30;;
51030;SDS011;37058;41.442;23.240;2022-08-19T03:44:04;4.78;;;3.75;;
51030;SDS011;37058;41.442;23.240;2022-08-19T03:46:31;6.63;;;4.53;;
51030;SDS011;37058;41.442;23.240;2022-08-19T03:48:59;8.77;;;4.07;;
51030;SDS011;37058;41.442;23.240;2022-08-19T03:51:30;10.20;;;4.78;;
51030;SDS011;37058;41.442;23.240;2022-08-19T03:54:01;6.53;;;4.07;;
51030;SDS011;37058;41.442;23.240;2022-08-19T03:56:30;7.03;;;3.90;;
51030;SDS011;37058;41.442;23.240;2022-08-19T03:58:58;6.18;;;3.75;;
51030;SDS011;37058;41.442;23.240;2022-08-19T04:01:26;6.25;;;4.72;;
51030;SDS011;37058;41.442;23.240;2022-08-19T04:03:54;6.13;;;4.55;;
51030;SDS011;37058;41.442;23.240;2022-08-19T04:06:23;6.18;;;4.20;;
51030;SDS011;37058;41.442;23.240;2022-08-19T04:08:58;6.22;;;4.20;;
51030;SDS011;37058;41.442;23.240;2022-08-19T04:11:27;6.80;;;4.75;;
51030;SDS011;37058;41.442;23.240;2022-08-19T04:13:59;6.70;;;4.47;;
51030;SDS011;37058;41.442;23.240;2022-08-19T04:16:26;6.53;;;3.70;;
51030;SDS011;37058;41.442;23.240;2022-08-19T04:18:56;9.55;;;4.53;;
51030;SDS011;37058;41.442;23.240;2022-08-19T04:21:26;8.07;;;5.40;;
51030;SDS011;37058;41.442;23.240;2022-08-19T04:23:54;7.30;;;5.40;;
51030;SDS011;37058;41.442;23.240;2022-08-19T04:26:25;7.97;;;5.85;;
51030;SDS011;37058;41.442;23.240;2022-08-19T04:28:59;11.40;;;6.63;;
51030;SDS011;37058;41.442;23.240;2022-08-19T04:31:29;9.25;;;6.00;;
51030;SDS011;37058;41.442;23.240;2022-08-19T04:34:00;7.13;;;5.03;;
51030;SDS011;37058;41.442;23.240;2022-08-19T04:36:31;5.85;;;4.40;;
51030;SDS011;37058;41.442;23.240;2022-08-19T04:39:01;7.20;;;5.13;;
51030;SDS011;37058;41.442;23.240;2022-08-19T04:41:33;5.13;;;3.95;;
51030;SDS011;37058;41.442;23.240;2022-08-19T04:44:18;6.68;;;4.40;;
51030;SDS011;37058;41.442;23.240;2022-08-19T04:46:45;8.18;;;4.95;;
51030;SDS011;37058;41.442;23.240;2022-08-19T04:49:13;6.57;;;4.53;;
51030;SDS011;37058;41.442;23.240;2022-08-19T04:51:42;6.88;;;4.47;;
51030;SDS011;37058;41.442;23.240;2022-08-19T04:54:13;6.22;;;4.18;;
51030;SDS011;37058;41.442;23.240;2022-08-19T04:56:40;8.05;;;4.28;;
51030;SDS011;37058;41.442;23.240;2022-08-19T04:59:06;5.45;;;4.35;;
51030;SDS011;37058;41.442;23.240;2022-08-19T05:01:33;6.10;;;4.65;;
51030;SDS011;37058;41.442;23.240;2022-08-19T05:04:01;5.15;;;4.28;;
51030;SDS011;37058;41.442;23.240;2022-08-19T05:06:30;6.72;;;4.57;;
51030;SDS011;37058;41.442;23.240;2022-08-19T05:09:02;8.25;;;4.55;;
51030;SDS011;37058;41.442;23.240;2022-08-19T05:11:35;5.15;;;3.63;;
51030;SDS011;37058;41.442;23.240;2022-08-19T05:14:04;4.22;;;3.63;;
51030;SDS011;37058;41.442;23.240;2022-08-19T05:16:31;6.07;;;4.25;;
51030;SDS011;37058;41.442;23.240;2022-08-19T05:18:57;7.75;;;5.15;;
51030;SDS011;37058;41.442;23.240;2022-08-19T05:21:42;5.50;;;3.95;;
51030;SDS011;37058;41.442;23.240;2022-08-19T05:24:27;4.93;;;3.72;;
51030;SDS011;37058;41.442;23.240;2022-08-19T05:26:55;5.28;;;3.58;;
51030;SDS011;37058;41.442;23.240;2022-08-19T05:29:22;5.38;;;3.80;;
51030;SDS011;37058;41.442;23.240;2022-08-19T05:31:52;4.72;;;3.83;;
51030;SDS011;37058;41.442;23.240;2022-08-19T05:34:20;4.93;;;3.45;;
51030;SDS011;37058;41.442;23.240;2022-08-19T05:36:51;4.68;;;3.40;;
51030;SDS011;37058;41.442;23.240;2022-08-19T05:39:22;5.15;;;3.55;;
51030;SDS011;37058;41.442;23.240;2022-08-19T05:41:57;4.97;;;3.63;;
51030;SDS011;37058;41.442;23.240;2022-08-19T05:44:32;6.13;;;3.70;;
51030;SDS011;37058;41.442;23.240;2022-08-19T05:47:04;3.60;;;2.72;;
51030;SDS011;37058;41.442;23.240;2022-08-19T05:49:33;3.83;;;3.05;;
51030;SDS011;37058;41.442;23.240;2022-08-19T05:52:05;7.30;;;3.88;;
51030;SDS011;37058;41.442;23.240;2022-08-19T05:54:36;4.93;;;2.78;;
51030;SDS011;37058;41.442;23.240;2022-08-19T05:57:06;4.90;;;3.33;;
51030;SDS011;37058;41.442;23.240;2022-08-19T05:59:33;4.18;;;3.00;;
51030;SDS011;37058;41.442;23.240;2022-08-19T06:02:00;4.75;;;3.50;;
51030;SDS011;37058;41.442;23.240;2022-08-19T06:04:27;3.28;;;2.60;;
51030;SDS011;37058;41.442;23.240;2022-08-19T06:06:53;4.70;;;3.25;;
51030;SDS011;37058;41.442;23.240;2022-08-19T06:09:21;7.90;;;3.40;;
51030;SDS011;37058;41.442;23.240;2022-08-19T06:11:56;4.22;;;2.95;;
51030;SDS011;37058;41.442;23.240;2022-08-19T06:14:29;5.35;;;3.30;;
51030;SDS011;37058;41.442;23.240;2022-08-19T06:16:59;4.72;;;3.50;;
51030;SDS011;37058;41.442;23.240;2022-08-19T06:19:27;3.20;;;2.42;;
51030;SDS011;37058;41.442;23.240;2022-08-19T06:21:55;3.40;;;2.72;;
51030;SDS011;37058;41.442;23.240;2022-08-19T06:24:24;4.50;;;2.88;;
51030;SDS011;37058;41.442;23.240;2022-08-19T06:26:53;3.65;;;2.83;;
51030;SDS011;37058;41.442;23.240;2022-08-19T06:29:23;4.10;;;2.70;;
51030;SDS011;37058;41.442;23.240;2022-08-19T06:31:52;3.17;;;2.47;;
51030;SDS011;37058;41.442;23.240;2022-08-19T06:34:21;5.68;;;3.03;;
51030;SDS011;37058;41.442;23.240;2022-08-19T06:36:48;4.47;;;2.65;;
51030;SDS011;37058;41.442;23.240;2022-08-19T06:39:17;4.32;;;2.47;;
51030;SDS011;37058;41.442;23.240;2022-08-19T06:41:51;4.10;;;2.47;;
51030;SDS011;37058;41.442;23.240;2022-08-19T06:44:21;3.38;;;2.60;;
51030;SDS011;37058;41.442;23.240;2022-08-19T06:46:49;3.10;;;2.50;;
51030;SDS011;37058;41.442;23.240;2022-08-19T06:49:15;3.85;;;2.53;;
51030;SDS011;37058;41.442;23.240;2022-08-19T06:51:46;4.10;;;2.30;;
51030;SDS011;37058;41.442;23.240;2022-08-19T06:54:13;4.22;;;2.67;;
51030;SDS011;37058;41.442;23.240;2022-08-19T06:56:43;3.35;;;2.38;;
51030;SDS011;37058;41.442;23.240;2022-08-19T06:59:11;3.25;;;2.25;;
51030;SDS011;37058;41.442;23.240;2022-08-19T07:01:44;3.30;;;2.25;;
51030;SDS011;37058;41.442;23.240;2022-08-19T07:04:14;3.00;;;2.13;;
51030;SDS011;37058;41.442;23.240;2022-08-19T07:06:43;2.80;;;2.08;;
51030;SDS011;37058;41.442;23.240;2022-08-19T07:09:12;3.40;;;2.75;;
51030;SDS011;37058;41.442;23.240;2022-08-19T07:11:47;3.50;;;2.40;;
51030;SDS011;37058;41.442;23.240;2022-08-19T07:14:18;4.30;;;2.50;;
51030;SDS011;37058;41.442;23.240;2022-08-19T07:16:48;4.63;;;2.75;;
51030;SDS011;37058;41.442;23.240;2022-08-19T07:19:16;3.00;;;2.53;;
51030;SDS011;37058;41.442;23.240;2022-08-19T07:21:47;4.78;;;2.72;;
51030;SDS011;37058;41.442;23.240;2022-08-19T07:24:16;3.53;;;2.67;;
51030;SDS011;37058;41.442;23.240;2022-08-19T07:26:43;3.63;;;2.75;;
51030;SDS011;37058;41.442;23.240;2022-08-19T07:29:10;3.53;;;2.80;;
51030;SDS011;37058;41.442;23.240;2022-08-19T07:31:38;4.38;;;3.00;;
51030;SDS011;37058;41.442;23.240;2022-08-19T07:34:05;3.55;;;2.83;;
51030;SDS011;37058;41.442;23.240;2022-08-19T07:36:34;5.65;;;2.83;;
51030;SDS011;37058;41.442;23.240;2022-08-19T07:39:09;3.60;;;2.60;;
51030;SDS011;37058;41.442;23.240;2022-08-19T07:41:50;3.38;;;2.47;;
51030;SDS011;37058;41.442;23.240;2022-08-19T07:44:16;3.30;;;2.50;;
51030;SDS011;37058;41.442;23.240;2022-08-19T07:46:46;4.68;;;2.67;;
51030;SDS011;37058;41.442;23.240;2022-08-19T07:49:17;4.85;;;2.60;;
51030;SDS011;37058;41.442;23.240;2022-08-19T07:52:06;5.45;;;2.45;;
51030;SDS011;37058;41.442;23.240;2022-08-19T07:54:33;5.53;;;3.20;;
51030;SDS011;37058;41.442;23.240;2022-08-19T07:57:02;3.67;;;2.67;;
51030;SDS011;37058;41.442;23.240;2022-08-19T07:59:29;3.00;;;2.20;;
51030;SDS011;37058;41.442;23.240;2022-08-19T08:01:56;4.15;;;2.40;;
51030;SDS011;37058;41.442;23.240;2022-08-19T08:04:25;4.10;;;3.10;;
51030;SDS011;37058;41.442;23.240;2022-08-19T08:07:11;5.13;;;2.55;;
51030;SDS011;37058;41.442;23.240;2022-08-19T08:09:56;8.57;;;2.70;;
51030;SDS011;37058;41.442;23.240;2022-08-19T08:12:24;4.40;;;2.78;;
51030;SDS011;37058;41.442;23.240;2022-08-19T08:14:56;3.65;;;2.80;;
51030;SDS011;37058;41.442;23.240;2022-08-19T08:17:29;4.72;;;3.20;;
51030;SDS011;37058;41.442;23.240;2022-08-19T08:19:56;4.00;;;2.65;;
51030;SDS011;37058;41.442;23.240;2022-08-19T08:22:22;2.85;;;2.20;;
51030;SDS011;37058;41.442;23.240;2022-08-19T08:25:08;3.45;;;2.70;;
51030;SDS011;37058;41.442;23.240;2022-08-19T08:27:42;3.05;;;2.15;;
51030;SDS011;37058;41.442;23.240;2022-08-19T08:30:12;6.15;;;2.88;;
51030;SDS011;37058;41.442;23.240;2022-08-19T08:32:44;4.45;;;2.63;;
51030;SDS011;37058;41.442;23.240;2022-08-19T08:35:12;4.00;;;2.53;;
51030;SDS011;37058;41.442;23.240;2022-08-19T08:37:42;3.75;;;2.58;;
51030;SDS011;37058;41.442;23.240;2022-08-19T08:40:16;5.30;;;2.40;;
51030;SDS011;37058;41.442;23.240;2022-08-19T08:42:59;3.42;;;2.67;;
51030;SDS011;37058;41.442;23.240;2022-08-19T08:48:52;3.47;;;2.40;;
51030;SDS011;37058;41.442;23.240;2022-08-19T08:51:44;4.72;;;2.83;;
51030;SDS011;37058;41.442;23.240;2022-08-19T08:54:18;3.40;;;2.35;;
51030;SDS011;37058;41.442;23.240;2022-08-19T08:56:49;4.82;;;2.67;;
51030;SDS011;37058;41.442;23.240;2022-08-19T09:01:51;5.35;;;2.55;;
51030;SDS011;37058;41.442;23.240;2022-08-19T09:04:17;3.95;;;2.47;;
51030;SDS011;37058;41.442;23.240;2022-08-19T09:06:55;2.33;;;1.73;;
51030;SDS011;37058;41.442;23.240;2022-08-19T09:09:30;4.10;;;2.72;;
51030;SDS011;37058;41.442;23.240;2022-08-19T09:14:51;5.15;;;2.97;;
51030;SDS011;37058;41.442;23.240;2022-08-19T09:17:25;3.35;;;2.47;;
51030;SDS011;37058;41.442;23.240;2022-08-19T09:22:47;4.25;;;2.50;;
51030;SDS011;37058;41.442;23.240;2022-08-19T09:25:16;3.63;;;2.42;;
51030;SDS011;37058;41.442;23.240;2022-08-19T09:27:49;3.78;;;2.50;;
51030;SDS011;37058;41.442;23.240;2022-08-19T09:30:22;3.97;;;2.20;;
51030;SDS011;37058;41.442;23.240;2022-08-19T09:32:53;3.58;;;2.28;;
51030;SDS011;37058;41.442;23.240;2022-08-19T09:35:23;3.23;;;2.33;;
51030;SDS011;37058;41.442;23.240;2022-08-19T09:37:54;2.75;;;2.28;;
51030;SDS011;37058;41.442;23.240;2022-08-19T09:40:22;3.20;;;2.25;;
51030;SDS011;37058;41.442;23.240;2022-08-19T09:42:48;3.72;;;2.30;;
51030;SDS011;37058;41.442;23.240;2022-08-19T09:45:15;2.70;;;2.00;;
51030;SDS011;37058;41.442;23.240;2022-08-19T09:47:45;3.25;;;2.08;;
51030;SDS011;37058;41.442;23.240;2022-08-19T09:50:11;3.03;;;2.00;;
51030;SDS011;37058;41.442;23.240;2022-08-19T09:52:37;4.40;;;2.47;;
51030;SDS011;37058;41.442;23.240;2022-08-19T09:55:05;3.35;;;2.38;;
51030;SDS011;37058;41.442;23.240;2022-08-19T09:57:33;4.32;;;2.30;;
51030;SDS011;37058;41.442;23.240;2022-08-19T09:59:59;2.40;;;2.03;;
51030;SDS011;37058;41.442;23.240;2022-08-19T10:02:25;3.17;;;2.35;;
51030;SDS011;37058;41.442;23.240;2022-08-19T10:04:51;7.50;;;2.15;;
51030;SDS011;37058;41.442;23.240;2022-08-19T10:07:36;3.58;;;2.03;;
51030;SDS011;37058;41.442;23.240;2022-08-19T10:10:04;3.67;;;2.13;;
51030;SDS011;37058;41.442;23.240;2022-08-19T10:12:32;4.90;;;2.13;;
51030;SDS011;37058;41.442;23.240;2022-08-19T10:17:27;2.85;;;2.08;;
51030;SDS011;37058;41.442;23.240;2022-08-19T10:19:53;3.47;;;2.30;;
51030;SDS011;37058;41.442;23.240;2022-08-19T10:22:19;4.38;;;2.20;;
51030;SDS011;37058;41.442;23.240;2022-08-19T10:24:46;3.45;;;2.25;;
51030;SDS011;37058;41.442;23.240;2022-08-19T10:27:12;2.58;;;1.85;;
51030;SDS011;37058;41.442;23.240;2022-08-19T10:29:39;2.38;;;1.88;;
51030;SDS011;37058;41.442;23.240;2022-08-19T10:32:06;2.35;;;1.90;;
51030;SDS011;37058;41.442;23.240;2022-08-19T10:34:34;3.22;;;2.13;;
51030;SDS011;37058;41.442;23.240;2022-08-19T10:37:04;2.75;;;2.17;;
51030;SDS011;37058;41.442;23.240;2022-08-19T10:39:32;5.10;;;2.08;;
51030;SDS011;37058;41.442;23.240;2022-08-19T10:42:04;2.97;;;2.25;;
51030;SDS011;37058;41.442;23.240;2022-08-19T10:44:32;3.15;;;2.17;;
51030;SDS011;37058;41.442;23.240;2022-08-19T10:49:27;3.17;;;2.13;;
51030;SDS011;37058;41.442;23.240;2022-08-19T10:51:53;2.70;;;2.22;;
51030;SDS011;37058;41.442;23.240;2022-08-19T10:54:39;2.33;;;1.80;;
51030;SDS011;37058;41.442;23.240;2022-08-19T10:57:23;2.88;;;2.05;;
51030;SDS011;37058;41.442;23.240;2022-08-19T10:59:54;2.97;;;2.38;;
51030;SDS011;37058;41.442;23.240;2022-08-19T11:02:21;3.25;;;2.25;;
51030;SDS011;37058;41.442;23.240;2022-08-19T11:04:47;4.00;;;2.22;;
51030;SDS011;37058;41.442;23.240;2022-08-19T11:07:15;2.67;;;2.13;;
51030;SDS011;37058;41.442;23.240;2022-08-19T11:09:41;2.92;;;2.20;;
51030;SDS011;37058;41.442;23.240;2022-08-19T11:12:08;3.50;;;1.98;;
51030;SDS011;37058;41.442;23.240;2022-08-19T11:14:35;2.63;;;2.08;;
51030;SDS011;37058;41.442;23.240;2022-08-19T11:17:02;2.78;;;1.90;;
51030;SDS011;37058;41.442;23.240;2022-08-19T11:21:56;2.58;;;2.08;;
51030;SDS011;37058;41.442;23.240;2022-08-19T11:24:23;4.22;;;1.88;;
51030;SDS011;37058;41.442;23.240;2022-08-19T11:26:51;2.50;;;2.08;;
51030;SDS011;37058;41.442;23.240;2022-08-19T11:29:23;2.70;;;1.88;;
51030;SDS011;37058;41.442;23.240;2022-08-19T11:31:50;2.40;;;1.88;;
51030;SDS011;37058;41.442;23.240;2022-08-19T11:34:19;2.83;;;1.85;;
51030;SDS011;37058;41.442;23.240;2022-08-19T11:36:52;2.55;;;2.35;;
51030;SDS011;37058;41.442;23.240;2022-08-19T11:39:20;4.95;;;2.10;;
51030;SDS011;37058;41.442;23.240;2022-08-19T11:41:47;4.30;;;2.35;;
51030;SDS011;37058;41.442;23.240;2022-08-19T11:44:14;3.10;;;2.30;;
51030;SDS011;37058;41.442;23.240;2022-08-19T11:46:40;4.38;;;2.28;;
51030;SDS011;37058;41.442;23.240;2022-08-19T11:49:12;2.90;;;1.75;;
51030;SDS011;37058;41.442;23.240;2022-08-19T11:51:40;2.80;;;2.15;;
51030;SDS011;37058;41.442;23.240;2022-08-19T11:54:09;2.40;;;2.05;;
51030;SDS011;37058;41.442;23.240;2022-08-19T11:56:37;3.58;;;2.35;;
51030;SDS011;37058;41.442;23.240;2022-08-19T11:59:04;2.53;;;1.92;;
51030;SDS011;37058;41.442;23.240;2022-08-19T12:01:30;2.53;;;1.88;;
51030;SDS011;37058;41.442;23.240;2022-08-19T12:03:56;3.92;;;2.20;;
51030;SDS011;37058;41.442;23.240;2022-08-19T12:06:32;4.10;;;2.22;;
51030;SDS011;37058;41.442;23.240;2022-08-19T12:09:00;2.92;;;2.05;;
51030;SDS011;37058;41.442;23.240;2022-08-19T12:11:30;2.90;;;2.05;;
51030;SDS011;37058;41.442;23.240;2022-08-19T12:13:56;2.20;;;1.83;;
51030;SDS011;37058;41.442;23.240;2022-08-19T12:16:23;3.47;;;2.38;;
51030;SDS011;37058;41.442;23.240;2022-08-19T12:18:52;3.63;;;2.17;;
51030;SDS011;37058;41.442;23.240;2022-08-19T12:21:21;2.97;;;2.40;;
51030;SDS011;37058;41.442;23.240;2022-08-19T12:23:53;3.03;;;2.05;;
51030;SDS011;37058;41.442;23.240;2022-08-19T12:26:20;2.97;;;2.10;;
51030;SDS011;37058;41.442;23.240;2022-08-19T12:28:48;2.58;;;2.13;;
51030;SDS011;37058;41.442;23.240;2022-08-19T12:31:15;3.08;;;2.13;;
51030;SDS011;37058;41.442;23.240;2022-08-19T12:33:41;3.15;;;2.20;;
51030;SDS011;37058;41.442;23.240;2022-08-19T12:36:10;2.85;;;1.90;;
51030;SDS011;37058;41.442;23.240;2022-08-19T12:38:38;4.03;;;2.28;;
51030;SDS011;37058;41.442;23.240;2022-08-19T12:41:06;3.05;;;2.25;;
51030;SDS011;37058;41.442;23.240;2022-08-19T12:43:35;3.47;;;2.22;;
51030;SDS011;37058;41.442;23.240;2022-08-19T12:46:03;4.85;;;2.50;;
51030;SDS011;37058;41.442;23.240;2022-08-19T12:48:30;4.20;;;2.85;;
51030;SDS011;37058;41.442;23.240;2022-08-19T12:50:57;4.95;;;3.75;;
51030;SDS011;37058;41.442;23.240;2022-08-19T12:53:23;2.50;;;2.08;;
51030;SDS011;37058;41.442;23.240;2022-08-19T12:55:57;2.80;;;1.90;;
51030;SDS011;37058;41.442;23.240;2022-08-19T12:58:25;4.18;;;2.95;;
51030;SDS011;37058;41.442;23.240;2022-08-19T13:00:53;4.13;;;3.25;;
51030;SDS011;37058;41.442;23.240;2022-08-19T13:03:19;6.25;;;3.80;;
51030;SDS011;37058;41.442;23.240;2022-08-19T13:05:47;3.60;;;2.67;;
51030;SDS011;37058;41.442;23.240;2022-08-19T13:08:15;3.25;;;2.08;;
51030;SDS011;37058;41.442;23.240;2022-08-19T13:10:42;5.68;;;2.33;;
51030;SDS011;37058;41.442;23.240;2022-08-19T13:13:08;3.13;;;2.42;;
51030;SDS011;37058;41.442;23.240;2022-08-19T13:15:35;2.75;;;1.95;;
51030;SDS011;37058;41.442;23.240;2022-08-19T13:18:05;2.83;;;2.10;;
51030;SDS011;37058;41.442;23.240;2022-08-19T13:20:34;3.03;;;2.42;;
51030;SDS011;37058;41.442;23.240;2022-08-19T13:23:01;4.05;;;2.60;;
51030;SDS011;37058;41.442;23.240;2022-08-19T13:25:29;16.33;;;3.20;;
51030;SDS011;37058;41.442;23.240;2022-08-19T13:27:55;3.17;;;2.03;;
51030;SDS011;37058;41.442;23.240;2022-08-19T13:30:21;3.10;;;2.03;;
51030;SDS011;37058;41.442;23.240;2022-08-19T13:33:07;2.38;;;2.03;;
51030;SDS011;37058;41.442;23.240;2022-08-19T13:35:47;3.50;;;2.20;;
51030;SDS011;37058;41.442;23.240;2022-08-19T13:38:22;3.45;;;2.30;;
51030;SDS011;37058;41.442;23.240;2022-08-19T13:40:49;6.03;;;2.38;;
51030;SDS011;37058;41.442;23.240;2022-08-19T13:43:18;2.42;;;1.83;;
51030;SDS011;37058;41.442;23.240;2022-08-19T13:45:52;3.35;;;2.05;;
51030;SDS011;37058;41.442;23.240;2022-08-19T13:48:20;2.97;;;2.20;;
51030;SDS011;37058;41.442;23.240;2022-08-19T13:50:47;2.63;;;2.25;;
51030;SDS011;37058;41.442;23.240;2022-08-19T13:53:13;3.72;;;2.72;;
51030;SDS011;37058;41.442;23.240;2022-08-19T13:55:41;3.33;;;2.53;;
51030;SDS011;37058;41.442;23.240;2022-08-19T13:58:09;3.08;;;2.03;;
51030;SDS011;37058;41.442;23.240;2022-08-19T14:00:37;4.33;;;2.63;;
51030;SDS011;37058;41.442;23.240;2022-08-19T14:03:07;3.83;;;2.17;;
51030;SDS011;37058;41.442;23.240;2022-08-19T14:05:34;2.50;;;2.05;;
51030;SDS011;37058;41.442;23.240;2022-08-19T14:08:01;2.92;;;2.00;;
51030;SDS011;37058;41.442;23.240;2022-08-19T14:10:27;4.05;;;2.00;;
51030;SDS011;37058;41.442;23.240;2022-08-19T14:12:56;3.10;;;2.13;;
51030;SDS011;37058;41.442;23.240;2022-08-19T14:15:25;5.18;;;2.20;;
51030;SDS011;37058;41.442;23.240;2022-08-19T14:17:52;4.32;;;2.42;;
51030;SDS011;37058;41.442;23.240;2022-08-19T14:20:19;4.25;;;2.38;;
51030;SDS011;37058;41.442;23.240;2022-08-19T14:22:46;4.07;;;2.40;;
51030;SDS011;37058;41.442;23.240;2022-08-19T14:25:15;2.08;;;1.70;;
51030;SDS011;37058;41.442;23.240;2022-08-19T14:27:46;9.95;;;2.85;;
51030;SDS011;37058;41.442;23.240;2022-08-19T14:30:15;2.70;;;2.00;;
51030;SDS011;37058;41.442;23.240;2022-08-19T14:32:45;3.30;;;2.40;;
51030;SDS011;37058;41.442;23.240;2022-08-19T14:35:11;2.83;;;1.80;;
51030;SDS011;37058;41.442;23.240;2022-08-19T14:37:41;2.70;;;1.88;;
51030;SDS011;37058;41.442;23.240;2022-08-19T14:40:09;4.03;;;2.28;;
51030;SDS011;37058;41.442;23.240;2022-08-19T14:42:36;2.33;;;1.90;;
51030;SDS011;37058;41.442;23.240;2022-08-19T14:45:02;3.28;;;2.47;;
51030;SDS011;37058;41.442;23.240;2022-08-19T14:47:32;3.58;;;2.50;;
51030;SDS011;37058;41.442;23.240;2022-08-19T14:49:58;4.40;;;2.20;;
51030;SDS011;37058;41.442;23.240;2022-08-19T14:52:24;2.88;;;2.05;;
51030;SDS011;37058;41.442;23.240;2022-08-19T14:54:50;2.72;;;1.90;;
51030;SDS011;37058;41.442;23.240;2022-08-19T14:57:16;4.35;;;1.90;;
51030;SDS011;37058;41.442;23.240;2022-08-19T14:59:42;4.03;;;2.00;;
51030;SDS011;37058;41.442;23.240;2022-08-19T15:02:09;3.33;;;1.83;;
51030;SDS011;37058;41.442;23.240;2022-08-19T15:04:36;2.92;;;2.00;;
51030;SDS011;37058;41.442;23.240;2022-08-19T15:07:02;2.85;;;2.05;;
51030;SDS011;37058;41.442;23.240;2022-08-19T15:09:30;3.08;;;1.90;;
51030;SDS011;37058;41.442;23.240;2022-08-19T15:11:58;3.10;;;1.95;;
51030;SDS011;37058;41.442;23.240;2022-08-19T15:14:26;2.28;;;1.55;;
51030;SDS011;37058;41.442;23.240;2022-08-19T15:16:59;4.05;;;2.10;;
51030;SDS011;37058;41.442;23.240;2022-08-19T15:21:54;3.67;;;2.25;;
51030;SDS011;37058;41.442;23.240;2022-08-19T15:24:21;3.95;;;2.00;;